Rachel — PCMZ — position and weather

sailwx.info

Track history (hours):
 
Tides and Currents Weather Stations Pressure Air Temp Water Temp Dewpoint Dewpoint Depression Visibility Wind Speed Wind Dir Waves Ship Positions

Rachel

Last reported at 2018-Jun-15 22:36 UTC. Time now 2018-Jun-22 01:59 UTC.
Position N 41°52' E 028°43'.

Length 99 m; draft 3.6 m.

Type: Cargo ship. MMSI: 244030634.

Date/timePositionNaut miles runAvg speedWind from/ knotsBaromVisibWave heightAir tempDewpointWater temp
2018-Jun-15 22:36N 41°52' E 028°43'110.6
2018-Jun-15 22:30N 41°52' E 028°44'510.3
2018-Jun-15 22:00N 41°47' E 028°48'510.3
2018-Jun-15 21:30N 41°43' E 028°52'1210.0
2018-Jun-15 20:20N 41°34' E 029°01'310.2
2018-Jun-15 20:00N 41°31' E 029°04'510.1
2018-Jun-15 19:30N 41°27' E 029°08'510.3
2018-Jun-15 19:00N 41°23' E 029°11'7 9.1
2018-Jun-15 18:12N 41°16' E 029°10'210.1
2018-Jun-15 18:00N 41°14' E 029°08'7 8.8
2018-Jun-15 17:11N 41°07' E 029°05'7 9.5
2018-Jun-15 16:27N 41°01' E 028°60'4 8.1
2018-Jun-15 16:00N 40°58' E 028°59'142 7.1
2018-Jun-14 20:11N 40°00' E 026°09'2 5.8
2018-Jun-14 19:53N 39°60' E 026°07'5 9.7
2018-Jun-14 19:25N 39°58' E 026°01'410.5
2018-Jun-14 19:00N 39°55' E 025°57'141 3.0
2018-Jun-12 20:01N 37°35' E 025°52'010.2
2018-Jun-12 19:59N 37°35' E 025°52'510.5
2018-Jun-12 19:30N 37°30' E 025°53'  
2018-Jun-08 14:34N 35°51' E 031°12'110.3
2018-Jun-08 14:31N 35°51' E 031°12'610.2
2018-Jun-08 13:57N 35°51' E 031°04'510.1
2018-Jun-08 13:26N 35°51' E 030°58'7 9.9
2018-Jun-08 12:44N 35°50' E 030°49'3 9.9
2018-Jun-08 12:29N 35°50' E 030°46'510.0
2018-Jun-08 12:01N 35°50' E 030°41'304 9.3
2018-Jun-07 03:25N 35°47' E 024°26'4 9.9
2018-Jun-07 03:00N 35°47' E 024°21'5 9.9
2018-Jun-07 02:30N 35°47' E 024°15'  
Track history (hours):
 
Tides and Currents Weather Stations Pressure Air Temp Water Temp Dewpoint Dewpoint Depression Visibility Wind Speed Wind Dir Waves Ship Positions

Rachel

Last reported at 2018-Jun-15 22:36 UTC. Time now 2018-Jun-22 01:59 UTC.
Position N 41°52' E 028°43'.

Length 99 m; draft 3.6 m.

Type: Cargo ship. MMSI: 244030634.

Date/timePositionNaut miles runAvg speedWind from/ knotsBaromVisibWave heightAir tempDewpointWater temp
2018-Jun-15 22:36N 41°52' E 028°43'110.6
2018-Jun-15 22:30N 41°52' E 028°44'510.3
2018-Jun-15 22:00N 41°47' E 028°48'510.3
2018-Jun-15 21:30N 41°43' E 028°52'1210.0
2018-Jun-15 20:20N 41°34' E 029°01'310.2
2018-Jun-15 20:00N 41°31' E 029°04'510.1
2018-Jun-15 19:30N 41°27' E 029°08'510.3
2018-Jun-15 19:00N 41°23' E 029°11'7 9.1
2018-Jun-15 18:12N 41°16' E 029°10'210.1
2018-Jun-15 18:00N 41°14' E 029°08'7 8.8
2018-Jun-15 17:11N 41°07' E 029°05'7 9.5
2018-Jun-15 16:27N 41°01' E 028°60'4 8.1
2018-Jun-15 16:00N 40°58' E 028°59'142 7.1
2018-Jun-14 20:11N 40°00' E 026°09'2 5.8
2018-Jun-14 19:53N 39°60' E 026°07'5 9.7
2018-Jun-14 19:25N 39°58' E 026°01'410.5
2018-Jun-14 19:00N 39°55' E 025°57'141 3.0
2018-Jun-12 20:01N 37°35' E 025°52'010.2
2018-Jun-12 19:59N 37°35' E 025°52'510.5
2018-Jun-12 19:30N 37°30' E 025°53'  
2018-Jun-08 14:34N 35°51' E 031°12'110.3
2018-Jun-08 14:31N 35°51' E 031°12'610.2
2018-Jun-08 13:57N 35°51' E 031°04'510.1
2018-Jun-08 13:26N 35°51' E 030°58'7 9.9
2018-Jun-08 12:44N 35°50' E 030°49'3 9.9
2018-Jun-08 12:29N 35°50' E 030°46'510.0
2018-Jun-08 12:01N 35°50' E 030°41'304 9.3
2018-Jun-07 03:25N 35°47' E 024°26'4 9.9
2018-Jun-07 03:00N 35°47' E 024°21'5 9.9
2018-Jun-07 02:30N 35°47' E 024°15'  

Dump ship's entire track history